Time;durP1;ratioP1;P1;durP2;ratioP2;P2;SDS_P1;SDS_P2;PMS_P1;PMS_P2;Temp;Humidity;BMP_temperature;BMP_pressure;BME280_temperature;BME280_humidity;BME280_pressure;Samples;Min_cycle;Max_cycle;Signal;HPM_P1;HPM_P2
2022/08/27 00:01:22;;;;;;;8.73;6.70;;;20.00;99.90;19.50;100244;;;;553548;255;24136;-80
2022/08/27 00:03:50;;;;;;;9.27;7.20;;;19.90;99.90;19.50;100239;;;;553530;255;24132;-82
2022/08/27 00:06:18;;;;;;;8.10;6.30;;;19.90;99.90;19.40;100239;;;;553468;255;24127;-82
2022/08/27 00:08:46;;;;;;;9.93;6.63;;;19.90;99.90;19.40;100248;;;;553227;255;24167;-81
2022/08/27 00:11:16;;;;;;;7.63;6.23;;;19.80;99.90;19.40;100235;;;;553190;255;24284;-81
2022/08/27 00:13:44;;;;;;;9.33;6.40;;;19.80;99.90;19.30;100246;;;;553585;255;24132;-81
2022/08/27 00:16:11;;;;;;;9.47;7.10;;;19.80;99.90;19.30;100237;;;;553148;255;24130;-81
2022/08/27 00:18:39;;;;;;;9.90;6.83;;;19.80;99.90;19.30;100232;;;;553569;255;24163;-80
2022/08/27 00:21:07;;;;;;;6.20;5.60;;;19.80;99.90;19.30;100234;;;;553547;255;24132;-81
2022/08/27 00:23:39;;;;;;;7.83;5.93;;;19.70;99.90;19.30;100227;;;;553511;255;24154;-81
2022/08/27 00:26:03;;;;;;;11.40;7.23;;;19.70;99.90;19.30;100220;;;;548351;255;36790;-80
2022/08/27 00:28:31;;;;;;;8.00;6.77;;;19.80;99.90;19.20;100226;;;;552927;255;24146;-81
2022/08/27 00:30:59;;;;;;;7.97;6.07;;;19.70;99.90;19.20;100224;;;;552974;255;23194;-80
2022/08/27 00:33:29;;;;;;;7.63;5.77;;;19.70;99.90;19.20;100216;;;;553295;255;24151;-78
2022/08/27 00:35:56;;;;;;;11.23;6.63;;;19.60;99.90;19.20;100215;;;;553311;255;24133;-76
2022/08/27 00:38:24;;;;;;;11.97;6.50;;;19.60;99.90;19.20;100221;;;;561507;252;24178;-78
2022/08/27 00:40:55;;;;;;;9.20;6.50;;;19.60;99.90;19.20;100218;;;;553395;255;24154;-79
2022/08/27 00:43:23;;;;;;;7.47;5.33;;;19.60;99.90;19.20;100221;;;;552982;255;24201;-80
2022/08/27 00:45:52;;;;;;;8.83;5.77;;;19.70;99.90;19.30;100216;;;;553304;255;24148;-81
2022/08/27 00:48:23;;;;;;;12.70;5.87;;;19.70;99.90;19.30;100215;;;;553291;255;24142;-79
2022/08/27 00:50:47;;;;;;;8.80;5.70;;;19.70;99.90;19.30;100225;;;;552302;255;24136;-79
2022/08/27 00:53:15;;;;;;;7.17;5.47;;;19.70;99.90;19.30;100215;;;;553154;255;24175;-78
2022/08/27 00:55:43;;;;;;;6.07;5.50;;;19.70;99.90;19.30;100214;;;;552776;255;24157;-78
2022/08/27 00:58:25;;;;;;;8.20;6.13;;;19.70;99.90;19.20;100215;;;;561018;252;24144;-78
2022/08/27 01:00:53;;;;;;;7.37;6.10;;;19.70;99.90;19.20;100214;;;;554382;255;24132;-80
2022/08/27 01:03:25;;;;;;;13.27;6.30;;;19.70;99.90;19.20;100215;;;;553765;255;24159;-79
2022/08/27 01:05:53;;;;;;;6.80;6.07;;;19.60;99.90;19.20;100212;;;;553250;255;24115;-80
2022/08/27 01:08:17;;;;;;;7.93;5.87;;;19.60;99.90;19.10;100210;;;;543775;259;24165;-79
2022/08/27 01:10:45;;;;;;;11.27;6.82;;;19.60;99.90;19.10;100212;;;;541304;259;35774;-79
2022/08/27 01:13:13;;;;;;;8.97;6.53;;;19.60;99.90;19.00;100216;;;;551173;257;23194;-79
2022/08/27 01:15:41;;;;;;;10.97;5.97;;;19.50;99.90;19.00;100212;;;;551615;256;24180;-78
2022/08/27 01:18:12;;;;;;;12.33;6.97;;;19.40;99.90;18.90;100212;;;;543498;260;23193;-77
2022/08/27 01:20:48;;;;;;;9.13;6.30;;;19.40;99.90;18.90;100210;;;;543299;259;23185;-77
2022/08/27 01:23:31;;;;;;;7.30;6.43;;;19.30;99.90;18.80;100201;;;;550655;260;24181;-79
2022/08/27 01:25:59;;;;;;;9.87;6.23;;;19.30;99.90;18.80;100203;;;;561327;255;24185;-78
2022/08/27 01:28:27;;;;;;;11.13;5.97;;;19.20;99.90;18.80;100210;;;;551764;256;24134;-78
2022/08/27 01:30:55;;;;;;;9.47;5.97;;;19.20;99.90;18.80;100204;;;;543444;260;24195;-78
2022/08/27 01:33:23;;;;;;;6.33;5.63;;;19.20;99.90;18.70;100196;;;;555202;254;24134;-78
2022/08/27 01:35:51;;;;;;;6.83;6.03;;;19.20;99.90;18.70;100202;;;;552302;260;24162;-80
2022/08/27 01:38:19;;;;;;;9.40;6.27;;;19.10;99.90;18.60;100205;;;;543099;259;25225;-77
2022/08/27 01:40:46;;;;;;;8.17;6.17;;;19.10;99.90;18.50;100212;;;;543179;256;24188;-80
2022/08/27 01:43:14;;;;;;;9.40;5.80;;;19.00;99.90;18.50;100205;;;;551492;260;24215;-80
2022/08/27 01:45:45;;;;;;;9.87;6.53;;;18.90;99.90;18.40;100211;;;;551271;256;24135;-80
2022/08/27 01:48:13;;;;;;;11.43;5.97;;;18.90;99.90;18.40;100202;;;;550854;260;24147;-78
2022/08/27 01:50:44;;;;;;;11.60;6.63;;;18.80;99.90;18.40;100209;;;;552819;255;24150;-80
2022/08/27 01:53:12;;;;;;;10.60;6.60;;;18.80;99.90;18.40;100205;;;;552603;255;24191;-81
2022/08/27 01:55:40;;;;;;;11.33;6.70;;;18.80;99.90;18.40;100206;;;;552868;255;24131;-78
2022/08/27 01:58:08;;;;;;;7.93;5.83;;;18.80;99.90;18.40;100198;;;;552402;255;24219;-79
2022/08/27 02:00:36;;;;;;;13.27;6.17;;;18.80;99.90;18.40;100205;;;;560900;255;24180;-81
2022/08/27 02:03:04;;;;;;;8.43;5.93;;;18.80;99.90;18.30;100206;;;;552727;255;24129;-78
2022/08/27 02:05:32;;;;;;;6.37;5.63;;;18.80;99.90;18.40;100202;;;;560888;255;24144;-78
2022/08/27 02:08:00;;;;;;;12.47;6.47;;;18.80;99.90;18.30;100203;;;;552674;255;24144;-78
2022/08/27 02:10:31;;;;;;;8.97;6.07;;;18.80;99.90;18.30;100213;;;;553056;253;24138;-77
2022/08/27 02:12:59;;;;;;;8.50;6.40;;;18.80;99.90;18.20;100209;;;;554201;254;24136;-80
2022/08/27 02:15:27;;;;;;;13.50;6.30;;;18.70;99.90;18.20;100204;;;;553769;255;24182;-78
2022/08/27 02:17:57;;;;;;;8.40;6.10;;;18.70;99.90;18.20;100202;;;;553683;255;24178;-78
2022/08/27 02:20:26;;;;;;;11.90;6.27;;;18.60;99.90;18.20;100197;;;;563104;255;24131;-78
2022/08/27 02:22:50;;;;;;;11.63;6.90;;;18.60;99.90;18.20;100197;;;;553124;255;24221;-79
2022/08/27 02:25:19;;;;;;;11.37;6.07;;;18.60;99.90;18.20;100204;;;;553484;255;24140;-78
2022/08/27 02:27:46;;;;;;;7.70;6.10;;;18.60;99.90;18.20;100200;;;;561940;255;24143;-80
2022/08/27 02:30:14;;;;;;;13.07;6.53;;;18.70;99.90;18.10;100204;;;;553447;255;24126;-79
2022/08/27 02:32:46;;;;;;;10.33;6.57;;;18.60;99.90;18.10;100203;;;;561206;252;24154;-78
2022/08/27 02:35:10;;;;;;;10.47;6.67;;;18.60;99.90;18.00;100206;;;;552765;255;24162;-79
2022/08/27 02:37:38;;;;;;;8.27;6.90;;;18.50;99.90;18.00;100203;;;;553320;255;24150;-78
2022/08/27 02:40:10;;;;;;;10.67;6.90;;;18.50;99.90;18.00;100194;;;;553232;255;24157;-77
2022/08/27 02:42:34;;;;;;;7.60;6.70;;;18.40;99.90;17.90;100195;;;;552725;255;24144;-79
2022/08/27 02:45:05;;;;;;;9.20;6.97;;;18.40;99.90;17.90;100196;;;;553305;255;24157;-77
2022/08/27 02:47:30;;;;;;;8.17;6.63;;;18.40;99.90;17.90;100196;;;;552716;254;24167;-78
2022/08/27 02:49:58;;;;;;;11.87;7.10;;;18.30;99.90;17.90;100193;;;;552902;255;24240;-77
2022/08/27 02:52:29;;;;;;;9.43;6.80;;;18.30;99.90;17.90;100197;;;;553169;255;24154;-80
2022/08/27 02:54:57;;;;;;;9.10;6.60;;;18.40;99.90;17.90;100192;;;;552846;255;24141;-77
2022/08/27 02:57:28;;;;;;;8.83;7.10;;;18.40;99.90;17.90;100203;;;;552699;255;24145;-78
2022/08/27 02:59:53;;;;;;;11.03;6.80;;;18.30;99.90;17.90;100201;;;;552697;255;24154;-80
2022/08/27 03:02:21;;;;;;;9.33;5.77;;;18.30;99.90;17.90;100205;;;;552429;255;24166;-78
2022/08/27 03:04:48;;;;;;;8.03;6.27;;;18.30;99.90;17.90;100200;;;;552432;251;24163;-81
2022/08/27 03:07:16;;;;;;;8.97;6.63;;;18.30;99.90;17.80;100198;;;;552933;255;24169;-80
2022/08/27 03:09:44;;;;;;;8.97;6.30;;;18.30;99.90;17.80;100194;;;;552780;255;24145;-81
2022/08/27 03:12:12;;;;;;;12.93;6.37;;;18.20;99.90;17.80;100195;;;;552891;255;24142;-80
2022/08/27 03:14:40;;;;;;;8.37;6.37;;;18.20;99.90;17.70;100193;;;;552770;255;24163;-81
2022/08/27 03:19:55;;;;;;;9.33;6.50;;;18.20;99.90;17.80;100185;;;;552733;255;24154;-81
2022/08/27 03:22:23;;;;;;;10.83;7.27;;;18.20;99.90;17.70;100187;;;;553327;254;24131;-81
2022/08/27 03:24:51;;;;;;;10.80;7.17;;;18.20;99.90;17.70;100181;;;;553971;255;24190;-82
2022/08/27 03:27:18;;;;;;;12.82;8.40;;;18.20;99.90;17.70;100183;;;;548747;255;35705;-82
2022/08/27 03:29:47;;;;;;;9.47;7.17;;;18.20;99.90;17.70;100183;;;;553833;255;24131;-81
2022/08/27 03:32:14;;;;;;;8.77;7.30;;;18.20;99.90;17.70;100180;;;;563380;255;24142;-81
2022/08/27 03:34:42;;;;;;;8.13;6.60;;;18.20;99.90;17.70;100172;;;;553613;255;24151;-81
2022/08/27 03:37:10;;;;;;;7.47;6.73;;;18.20;99.90;17.70;100181;;;;553606;255;24120;-80
2022/08/27 03:39:38;;;;;;;9.47;7.03;;;18.20;99.90;17.70;100180;;;;553647;255;24182;-81
2022/08/27 03:42:06;;;;;;;9.83;6.87;;;18.20;99.90;17.70;100181;;;;553374;255;24151;-81
2022/08/27 03:44:35;;;;;;;13.40;6.50;;;18.10;99.90;17.60;100180;;;;553463;255;24205;-81
2022/08/27 03:47:03;;;;;;;10.33;7.57;;;18.10;99.90;17.60;100175;;;;553479;255;24132;-79
2022/08/27 03:49:32;;;;;;;9.63;6.57;;;18.00;99.90;17.60;100180;;;;553458;255;24141;-81
2022/08/27 03:52:01;;;;;;;9.17;6.73;;;18.10;99.90;17.60;100170;;;;553457;255;24135;-80
2022/08/27 03:54:33;;;;;;;11.40;7.67;;;18.10;99.90;17.70;100177;;;;561554;251;24271;-80
2022/08/27 03:56:57;;;;;;;12.27;6.60;;;18.10;99.90;17.70;100170;;;;552917;255;24139;-80
2022/08/27 03:59:24;;;;;;;11.77;6.60;;;18.10;99.90;17.70;100177;;;;553224;255;24153;-80
2022/08/27 04:01:52;;;;;;;7.10;6.50;;;18.10;99.90;17.70;100174;;;;553123;255;24143;-81
2022/08/27 04:04:25;;;;;;;8.20;6.30;;;18.20;99.90;17.70;100185;;;;552767;255;24220;-80
2022/08/27 04:06:49;;;;;;;12.40;6.47;;;18.20;99.90;17.80;100175;;;;552256;255;24175;-80
2022/08/27 04:09:20;;;;;;;12.77;7.80;;;18.20;99.90;17.80;100176;;;;552886;255;24163;-77
2022/08/27 04:11:45;;;;;;;11.53;7.27;;;18.20;99.90;17.80;100174;;;;552620;255;24227;-77
2022/08/27 04:14:13;;;;;;;11.63;7.17;;;18.30;99.90;17.90;100178;;;;552701;255;24156;-80
2022/08/27 04:16:42;;;;;;;9.13;7.10;;;18.30;99.90;18.00;100171;;;;552768;255;24142;-80
2022/08/27 04:19:12;;;;;;;8.47;6.53;;;18.40;99.90;18.00;100176;;;;552680;255;24148;-80
2022/08/27 04:21:36;;;;;;;11.30;6.27;;;18.40;99.90;18.10;100169;;;;552095;255;24144;-79
2022/08/27 04:24:04;;;;;;;14.90;7.13;;;18.50;99.90;18.10;100173;;;;552783;255;24133;-80
2022/08/27 04:26:32;;;;;;;10.90;7.33;;;18.50;99.90;18.20;100176;;;;552881;255;24155;-78
2022/08/27 04:29:00;;;;;;;11.13;6.50;;;18.60;99.90;18.30;100178;;;;552777;255;24174;-79
2022/08/27 04:31:28;;;;;;;10.63;7.67;;;18.70;99.90;18.40;100179;;;;553021;255;24199;-79
2022/08/27 04:33:56;;;;;;;7.27;6.57;;;18.80;99.90;18.50;100174;;;;553516;254;24184;-78
2022/08/27 04:36:24;;;;;;;7.40;6.63;;;18.90;99.90;18.60;100175;;;;554247;255;24206;-80
2022/08/27 04:38:52;;;;;;;10.13;7.90;;;19.00;99.90;18.70;100177;;;;553974;255;24128;-80
2022/08/27 04:41:21;;;;;;;7.10;6.40;;;19.00;99.90;18.80;100175;;;;553807;255;24167;-79
2022/08/27 04:43:48;;;;;;;8.00;6.83;;;19.20;99.90;18.90;100171;;;;553574;255;24146;-81
2022/08/27 04:46:22;;;;;;;8.07;6.33;;;19.30;99.90;19.10;100164;;;;553610;255;24151;-80
2022/08/27 04:48:50;;;;;;;10.13;6.57;;;19.50;99.90;19.60;100178;;;;555571;255;24173;-81
2022/08/27 04:51:18;;;;;;;9.63;6.97;;;19.90;99.90;20.80;100173;;;;553455;255;23170;-80
2022/08/27 04:53:45;;;;;;;11.77;6.50;;;21.00;99.90;22.10;100182;;;;553579;255;24147;-81
2022/08/27 04:56:14;;;;;;;11.23;7.07;;;22.20;99.90;23.40;100178;;;;553444;255;24131;-81
2022/08/27 04:58:41;;;;;;;11.83;6.70;;;23.50;99.90;24.40;100171;;;;553401;255;24170;-78
2022/08/27 05:01:09;;;;;;;8.03;5.93;;;24.60;99.90;25.30;100173;;;;553330;255;23167;-78
2022/08/27 05:03:37;;;;;;;11.73;6.10;;;25.70;99.90;26.30;100172;;;;552930;255;24136;-79
2022/08/27 05:06:06;;;;;;;7.17;6.47;;;27.60;99.90;27.30;100170;;;;552985;255;23161;-78
2022/08/27 05:08:35;;;;;;;14.57;6.17;;;28.50;99.90;28.10;100178;;;;553136;255;24269;-78
2022/08/27 05:11:03;;;;;;;10.27;6.57;;;29.30;99.90;28.90;100176;;;;552791;251;23153;-78
2022/08/27 05:13:32;;;;;;;11.03;6.47;;;30.10;99.90;29.70;100180;;;;552963;255;23203;-78
2022/08/27 05:16:00;;;;;;;10.27;6.05;;;30.00;99.90;30.40;100182;;;;552746;255;24186;-78
2022/08/27 05:18:28;;;;;;;7.35;6.30;;;30.80;99.90;31.20;100186;;;;552327;255;24178;-78
2022/08/27 05:21:00;;;;;;;9.88;5.57;;;31.60;98.40;31.80;100192;;;;562914;255;23212;-77
2022/08/27 05:23:26;;;;;;;11.75;6.40;;;32.20;96.50;32.40;100189;;;;552327;255;24174;-78
2022/08/27 05:25:52;;;;;;;7.57;5.72;;;32.80;94.20;33.10;100191;;;;552668;255;24222;-78
2022/08/27 05:28:22;;;;;;;9.15;5.80;;;33.50;91.50;33.70;100195;;;;552764;255;23161;-78
2022/08/27 05:30:50;;;;;;;7.72;5.65;;;34.10;88.10;34.30;100192;;;;561305;255;23156;-78
2022/08/27 05:33:18;;;;;;;8.63;5.97;;;34.60;80.80;34.50;100195;;;;552708;255;24189;-79
2022/08/27 05:35:47;;;;;;;11.25;6.72;;;35.30;75.00;34.80;100191;;;;552333;255;23162;-78
2022/08/27 05:38:15;;;;;;;12.75;6.28;;;35.70;73.00;35.20;100202;;;;552687;255;24208;-79
2022/08/27 05:40:47;;;;;;;10.98;6.40;;;35.60;72.90;35.70;100198;;;;552714;255;23175;-78
2022/08/27 05:43:14;;;;;;;7.65;6.60;;;36.10;70.10;36.00;100197;;;;552642;255;23214;-80
2022/08/27 05:45:45;;;;;;;7.65;6.37;;;36.50;68.80;36.50;100202;;;;553715;254;24201;-79
2022/08/27 05:48:16;;;;;;;6.20;5.72;;;36.90;67.00;37.00;100203;;;;554273;255;23143;-78
2022/08/27 05:50:41;;;;;;;6.90;6.18;;;37.40;64.50;37.50;100201;;;;553547;255;23166;-79
2022/08/27 05:53:09;;;;;;;7.85;6.20;;;37.90;62.20;37.70;100198;;;;554909;255;23164;-82
2022/08/27 05:55:39;;;;;;;7.07;5.68;;;38.20;60.60;38.10;100209;;;;563388;251;23202;-81
2022/08/27 05:58:07;;;;;;;11.95;5.55;;;38.50;59.50;38.60;100209;;;;553438;255;23175;-82
2022/08/27 06:03:24;;;;;;;8.82;5.90;;;39.30;58.10;39.80;100212;;;;553556;255;23137;-82
2022/08/27 06:05:52;;;;;;;8.98;5.78;;;40.60;55.50;40.30;100215;;;;553262;255;23156;-82
2022/08/27 06:08:20;;;;;;;7.25;6.40;;;40.60;55.50;40.70;100216;;;;560805;252;23160;-81
2022/08/27 06:10:49;;;;;;;7.43;6.00;;;41.00;54.80;41.20;100219;;;;553012;255;23154;-82
2022/08/27 06:13:16;;;;;;;9.75;6.00;;;41.50;54.30;41.70;100214;;;;552906;255;23149;-82
2022/08/27 06:15:44;;;;;;;8.43;6.10;;;42.00;53.00;42.30;100213;;;;552915;255;23177;-82
2022/08/27 06:18:12;;;;;;;7.03;6.32;;;42.50;52.00;42.90;100217;;;;553038;255;23245;-81
2022/08/27 06:20:40;;;;;;;11.45;6.25;;;43.10;51.20;43.40;100219;;;;552917;255;23213;-79
2022/08/27 06:23:08;;;;;;;7.87;6.47;;;43.70;50.30;44.00;100226;;;;552927;255;23145;-82
2022/08/27 06:25:36;;;;;;;10.93;6.68;;;44.20;49.90;44.40;100222;;;;552773;255;23179;-80
2022/08/27 06:28:05;;;;;;;7.35;5.87;;;44.90;48.00;44.60;100225;;;;552850;255;23164;-83
2022/08/27 06:30:37;;;;;;;9.68;6.07;;;45.20;47.70;45.00;100227;;;;553058;255;24201;-82
2022/08/27 06:33:02;;;;;;;6.82;6.22;;;45.50;47.10;45.30;100232;;;;552503;255;23176;-80
2022/08/27 06:35:30;;;;;;;7.40;5.68;;;45.40;46.40;45.60;100237;;;;553174;255;23168;-80
2022/08/27 06:37:59;;;;;;;7.60;6.25;;;45.90;45.90;46.00;100234;;;;553103;255;23157;-79
2022/08/27 06:40:26;;;;;;;7.87;5.78;;;46.10;45.70;46.30;100227;;;;553001;255;23174;-81
2022/08/27 06:42:54;;;;;;;6.70;6.00;;;46.40;44.60;46.40;100233;;;;553106;255;23172;-79
2022/08/27 06:45:22;;;;;;;7.25;6.18;;;46.60;44.20;46.60;100234;;;;553172;254;23194;-80
2022/08/27 06:47:50;;;;;;;9.80;6.82;;;46.80;43.10;46.40;100233;;;;553114;255;23156;-81
2022/08/27 06:50:19;;;;;;;9.10;5.97;;;46.70;42.70;46.50;100231;;;;553094;255;23278;-80
2022/08/27 06:52:46;;;;;;;6.50;5.43;;;46.80;42.50;46.40;100239;;;;553184;255;24198;-79
2022/08/27 06:55:14;;;;;;;6.53;5.97;;;46.70;42.80;46.60;100237;;;;553086;255;23180;-79
2022/08/27 06:57:42;;;;;;;8.85;6.12;;;46.90;42.30;46.70;100243;;;;553980;254;23308;-80
2022/08/27 07:00:13;;;;;;;8.25;6.75;;;47.00;42.30;47.00;100239;;;;554094;255;24187;-79
2022/08/27 07:02:37;;;;;;;10.95;6.78;;;47.30;41.80;47.40;100238;;;;553357;255;23153;-81
2022/08/27 07:05:07;;;;;;;9.77;6.00;;;47.70;41.30;47.40;100240;;;;553815;255;23134;-82
2022/08/27 07:07:34;;;;;;;11.20;6.10;;;47.70;41.30;47.50;100236;;;;553163;255;23202;-79
2022/08/27 07:10:02;;;;;;;8.88;6.43;;;47.80;41.20;47.70;100239;;;;553400;255;23157;-82
2022/08/27 07:12:30;;;;;;;7.78;6.62;;;47.90;40.50;47.60;100240;;;;553303;255;23195;-82
2022/08/27 07:14:58;;;;;;;8.10;6.10;;;47.90;40.30;47.60;100231;;;;553438;255;23150;-83
2022/08/27 07:17:26;;;;;;;11.45;6.57;;;47.90;40.60;47.70;100244;;;;552719;255;23151;-83
2022/08/27 07:19:54;;;;;;;8.05;6.78;;;48.00;40.40;47.50;100244;;;;553126;255;23168;-83
2022/08/27 07:22:22;;;;;;;8.68;6.37;;;47.90;40.10;47.50;100240;;;;553187;255;23149;-82
2022/08/27 07:24:52;;;;;;;12.68;6.75;;;48.00;40.40;48.00;100238;;;;553137;255;23156;-83
2022/08/27 07:27:20;;;;;;;9.32;6.60;;;48.50;39.90;48.50;100237;;;;553219;255;23171;-82
2022/08/27 07:29:47;;;;;;;9.87;7.00;;;48.50;39.90;48.90;100235;;;;548329;255;35655;-83
2022/08/27 07:32:15;;;;;;;10.00;6.40;;;48.90;39.70;49.30;100235;;;;552727;255;24225;-81
2022/08/27 07:34:43;;;;;;;10.23;6.47;;;49.40;39.10;49.40;100244;;;;553091;255;23138;-79
2022/08/27 07:37:11;;;;;;;8.38;6.03;;;49.50;38.90;49.20;100247;;;;553095;255;23163;-79
2022/08/27 07:39:39;;;;;;;7.00;6.28;;;49.60;39.00;49.10;100236;;;;553100;255;23194;-78
2022/08/27 07:44:52;;;;;;;8.20;6.47;;;49.70;39.50;50.10;100239;;;;553080;255;23136;-79
2022/08/27 07:47:20;;;;;;;7.25;6.47;;;50.10;39.10;50.20;100235;;;;553181;255;23163;-81
2022/08/27 07:49:49;;;;;;;8.80;7.00;;;50.40;39.10;50.50;100238;;;;553073;255;23148;-81
2022/08/27 07:52:19;;;;;;;9.73;6.55;;;50.70;38.50;50.60;100236;;;;552942;255;23180;-80
2022/08/27 07:54:44;;;;;;;9.80;7.12;;;50.90;38.20;50.70;100236;;;;557974;255;35723;-79
2022/08/27 07:57:12;;;;;;;12.30;6.53;;;51.00;38.10;50.70;100235;;;;553106;255;23165;-79
2022/08/27 07:59:40;;;;;;;9.63;6.12;;;51.10;38.20;51.20;100232;;;;553122;255;23164;-79
2022/08/27 08:02:11;;;;;;;8.55;6.28;;;51.70;37.60;51.40;100238;;;;553135;255;23260;-81
2022/08/27 08:04:37;;;;;;;6.75;6.18;;;52.00;37.50;51.80;100233;;;;552866;255;23230;-83
2022/08/27 08:07:06;;;;;;;11.85;7.05;;;52.40;37.20;52.30;100231;;;;553222;255;23140;-84
2022/08/27 08:09:34;;;;;;;7.82;7.12;;;52.30;37.10;52.70;100234;;;;554027;254;23205;-85
2022/08/27 08:12:02;;;;;;;9.02;6.32;;;52.90;36.80;52.50;100234;;;;553819;255;23145;-82
2022/08/27 08:14:31;;;;;;;14.35;6.72;;;52.90;35.80;52.40;100232;;;;561872;255;23198;-80
2022/08/27 08:17:01;;;;;;;7.32;6.65;;;52.90;36.00;52.60;100232;;;;553087;255;23173;-82
2022/08/27 08:19:31;;;;;;;11.70;6.55;;;53.00;35.90;52.80;100234;;;;553380;255;23186;-82
2022/08/27 08:21:56;;;;;;;6.90;6.30;;;53.20;35.90;52.90;100235;;;;553102;255;23239;-81
2022/08/27 08:24:27;;;;;;;11.43;6.72;;;53.20;35.60;53.30;100238;;;;553610;255;24191;-79
2022/08/27 08:26:52;;;;;;;10.05;7.20;;;53.50;35.30;53.50;100231;;;;552795;255;23174;-80
2022/08/27 08:29:20;;;;;;;7.82;6.82;;;53.80;35.50;53.70;100238;;;;553010;255;23160;-83
2022/08/27 08:31:48;;;;;;;10.68;7.00;;;54.00;35.40;53.60;100236;;;;553193;255;23176;-83
2022/08/27 08:34:20;;;;;;;7.65;6.80;;;54.00;34.20;52.90;100237;;;;552995;255;23263;-79
2022/08/27 08:36:45;;;;;;;17.58;7.47;;;53.90;35.40;53.10;100239;;;;552941;255;23195;-80
2022/08/27 08:39:14;;;;;;;9.18;6.53;;;54.20;34.50;53.50;100242;;;;553060;255;23215;-80
2022/08/27 08:41:42;;;;;;;7.32;6.43;;;54.20;34.40;53.70;100247;;;;553003;255;24281;-80
2022/08/27 08:44:13;;;;;;;7.87;6.72;;;54.40;33.90;53.60;100243;;;;552677;255;23175;-80
2022/08/27 08:46:49;;;;;;;7.85;6.87;;;54.50;33.80;53.70;100247;;;;551680;255;23177;-83
2022/08/27 08:49:29;;;;;;;7.40;6.43;;;54.60;33.70;54.10;100250;;;;551761;255;23158;-81
2022/08/27 08:51:57;;;;;;;7.47;5.90;;;54.80;33.60;54.00;100245;;;;552950;255;23255;-79
2022/08/27 08:54:25;;;;;;;7.47;6.87;;;55.00;33.60;54.20;100247;;;;552622;255;23153;-81
2022/08/27 08:57:08;;;;;;;8.75;6.53;;;55.10;33.50;54.10;100243;;;;552699;255;23176;-83
2022/08/27 08:59:38;;;;;;;7.37;6.65;;;55.10;33.20;53.60;100237;;;;552550;255;23146;-82
2022/08/27 09:02:09;;;;;;;7.53;6.82;;;54.90;33.40;53.30;100238;;;;552631;255;24207;-82
2022/08/27 09:04:38;;;;;;;7.37;6.75;;;54.30;34.50;52.90;100244;;;;552852;255;23270;-81
2022/08/27 09:07:09;;;;;;;7.18;6.68;;;54.00;33.90;52.90;100238;;;;552451;255;23138;-80
2022/08/27 09:10:01;;;;;;;8.00;7.15;;;54.00;33.90;53.00;100238;;;;551594;255;24216;-80
2022/08/27 09:12:31;;;;;;;7.72;6.97;;;53.70;34.50;52.50;100246;;;;553086;255;23227;-81
2022/08/27 09:15:16;;;;;;;9.27;7.10;;;53.70;34.40;52.70;100246;;;;552611;255;23282;-81
2022/08/27 09:17:47;;;;;;;8.85;6.78;;;53.80;34.40;52.20;100240;;;;553089;255;23272;-82
2022/08/27 09:20:11;;;;;;;8.63;6.45;;;53.70;34.30;52.00;100244;;;;553498;254;23155;-83
2022/08/27 09:23:00;;;;;;;25.42;7.30;;;53.50;34.30;51.90;100253;;;;554767;255;23161;-82
2022/08/27 09:25:33;;;;;;;8.13;6.40;;;53.20;34.50;51.00;100254;;;;554762;255;23149;-80
2022/08/27 09:28:02;;;;;;;10.55;6.78;;;52.70;34.60;50.70;100247;;;;554604;254;23160;-83
2022/08/27 09:30:29;;;;;;;9.57;6.30;;;52.30;35.10;51.10;100250;;;;553590;255;24183;-83
2022/08/27 09:33:00;;;;;;;7.20;6.60;;;52.40;34.70;51.60;100253;;;;553886;255;23193;-83
2022/08/27 09:35:29;;;;;;;7.28;6.65;;;53.10;33.90;51.50;100246;;;;553776;255;23149;-82
2022/08/27 09:37:58;;;;;;;15.18;6.62;;;53.10;34.70;51.60;100251;;;;552481;255;23213;-80
2022/08/27 09:40:30;;;;;;;9.70;6.93;;;53.20;34.20;51.50;100259;;;;548366;255;35699;-79
2022/08/27 09:43:01;;;;;;;9.65;6.03;;;53.10;33.30;50.10;100249;;;;553097;255;23213;-79
2022/08/27 09:45:25;;;;;;;8.40;6.30;;;52.30;33.60;49.30;100252;;;;552393;255;23178;-78
2022/08/27 09:48:02;;;;;;;6.95;6.25;;;51.40;34.20;48.90;100252;;;;553070;255;23153;-79
2022/08/27 09:50:35;;;;;;;6.55;5.93;;;50.80;34.30;48.70;100252;;;;553100;255;24229;-81
2022/08/27 09:53:03;;;;;;;8.30;5.70;;;50.50;34.30;48.70;100255;;;;552408;255;23210;-82
2022/08/27 09:55:43;;;;;;;6.60;6.00;;;50.60;34.50;48.90;100256;;;;553118;255;23215;-79
2022/08/27 09:58:20;;;;;;;10.48;6.03;;;50.60;34.50;48.40;100248;;;;552691;255;23142;-81
2022/08/27 10:00:48;;;;;;;8.55;5.95;;;50.30;34.80;48.60;100249;;;;551699;255;23193;-79
2022/08/27 10:03:16;;;;;;;6.65;5.87;;;50.30;35.40;48.60;100240;;;;552426;255;23168;-79
2022/08/27 10:05:44;;;;;;;8.23;6.40;;;50.40;34.90;48.80;100244;;;;547693;255;35669;-79
2022/08/27 10:08:37;;;;;;;6.93;5.70;;;50.70;34.70;47.90;100241;;;;552630;255;23187;-80
2022/08/27 10:11:11;;;;;;;6.87;6.20;;;48.40;35.60;45.80;100236;;;;548099;253;35874;-83
2022/08/27 10:13:57;;;;;;;7.18;6.22;;;48.30;35.50;43.30;100245;;;;560990;252;23152;-82
2022/08/27 10:16:36;;;;;;;11.98;6.28;;;46.00;37.70;41.20;100235;;;;560846;252;23164;-82
2022/08/27 10:19:38;;;;;;;6.00;5.50;;;43.50;40.10;39.90;100239;;;;552712;255;23186;-82
2022/08/27 10:22:24;;;;;;;8.48;5.60;;;41.60;42.40;38.20;100237;;;;553199;255;23259;-82
2022/08/27 10:25:22;;;;;;;6.20;5.70;;;39.80;43.20;36.70;100237;;;;552436;255;23171;-81
2022/08/27 10:28:17;;;;;;;8.40;5.90;;;38.10;45.50;35.60;100232;;;;560781;252;23155;-80
2022/08/27 10:31:18;;;;;;;10.85;6.72;;;36.70;48.00;34.80;100227;;;;547865;255;46627;-79
2022/08/27 10:34:02;;;;;;;10.30;5.75;;;35.70;49.70;34.40;100216;;;;555032;253;23159;-81
2022/08/27 10:37:11;;;;;;;13.68;6.15;;;35.00;51.00;34.10;100226;;;;553386;255;23156;-81
2022/08/27 10:39:57;;;;;;;8.68;6.55;;;34.70;52.40;33.40;100223;;;;553579;255;23192;-80
2022/08/27 10:42:28;;;;;;;9.80;6.53;;;34.00;53.10;33.10;100222;;;;543551;260;24256;-79
2022/08/27 10:45:33;;;;;;;7.43;5.95;;;33.10;55.70;32.60;100221;;;;540516;259;23252;-81
2022/08/27 10:48:03;;;;;;;7.40;6.62;;;33.10;55.70;32.30;100219;;;;543526;260;23228;-80
2022/08/27 10:51:17;;;;;;;10.88;6.00;;;32.70;56.80;32.20;100213;;;;553203;254;23136;-80
2022/08/27 10:53:54;;;;;;;17.70;6.72;;;32.50;57.70;32.10;100213;;;;563684;254;23182;-79
2022/08/27 10:56:39;;;;;;;8.85;6.68;;;32.30;58.30;31.90;100215;;;;537913;259;39645;-78
2022/08/27 10:59:47;;;;;;;8.32;6.53;;;32.20;58.30;31.70;100211;;;;561199;255;24195;-80
2022/08/27 11:02:39;;;;;;;7.72;7.03;;;32.00;58.10;31.30;100211;;;;553357;255;23166;-81
2022/08/27 11:05:26;;;;;;;12.20;6.53;;;31.50;58.60;31.10;100206;;;;552776;255;23175;-82
2022/08/27 11:08:04;;;;;;;7.93;7.22;;;31.40;61.50;31.00;100212;;;;553056;255;24235;-79
2022/08/27 11:10:37;;;;;;;9.18;7.90;;;31.30;61.40;30.90;100215;;;;550323;255;24164;-82
2022/08/27 11:13:05;;;;;;;10.43;8.50;;;31.20;64.10;30.70;100210;;;;552830;255;23253;-81
2022/08/27 11:15:33;;;;;;;10.73;7.62;;;31.10;66.10;30.60;100220;;;;552058;255;23218;-81
2022/08/27 11:18:05;;;;;;;7.80;7.07;;;30.80;66.40;30.50;100204;;;;552814;255;24196;-80
2022/08/27 11:20:36;;;;;;;10.93;7.90;;;30.80;66.30;30.40;100206;;;;552573;255;24148;-83
2022/08/27 11:23:06;;;;;;;8.38;7.50;;;30.80;65.80;30.30;100207;;;;552014;255;23158;-81
2022/08/27 11:25:52;;;;;;;13.98;8.65;;;30.70;67.60;30.20;100212;;;;560652;255;24151;-77
2022/08/27 11:28:21;;;;;;;12.85;8.50;;;30.40;70.80;29.90;100207;;;;552913;255;24300;-78
2022/08/27 11:30:58;;;;;;;10.48;7.45;;;30.30;71.40;29.80;100208;;;;551779;255;23165;-79